Time;durP1;ratioP1;P1;durP2;ratioP2;P2;SDS_P1;SDS_P2;PMS_P1;PMS_P2;Temp;Humidity;BMP_temperature;BMP_pressure;BME280_temperature;BME280_humidity;BME280_pressure;Samples;Min_cycle;Max_cycle;Signal;HPM_P1;HPM_P2
2022/08/27 00:01:29;;;;;;;4.88;4.10;;;23.40;99.90;;;;;;4976208;28;20027;-63
2022/08/27 00:03:55;;;;;;;4.22;3.83;;;23.30;99.90;;;;;;4975907;28;20023;-61
2022/08/27 00:06:22;;;;;;;3.05;2.83;;;23.30;99.90;;;;;;4975658;28;20468;-62
2022/08/27 00:08:49;;;;;;;4.43;3.50;;;23.30;99.90;;;;;;4975832;28;20023;-62
2022/08/27 00:11:17;;;;;;;3.60;3.30;;;23.30;99.90;;;;;;4975704;28;20023;-62
2022/08/27 00:13:43;;;;;;;3.75;2.92;;;23.30;99.90;;;;;;4975665;28;20026;-61
2022/08/27 00:16:10;;;;;;;3.80;3.47;;;23.30;99.90;;;;;;4975839;28;20023;-62
2022/08/27 00:18:36;;;;;;;4.28;3.47;;;23.30;99.90;;;;;;4975669;28;20385;-62
2022/08/27 00:21:03;;;;;;;3.28;3.03;;;23.30;99.90;;;;;;4975467;28;20447;-61
2022/08/27 00:23:30;;;;;;;3.33;2.92;;;23.30;99.90;;;;;;4975653;28;20481;-61
2022/08/27 00:25:57;;;;;;;3.55;2.80;;;23.20;99.90;;;;;;4975355;28;20038;-61
2022/08/27 00:28:24;;;;;;;5.32;3.20;;;23.30;99.90;;;;;;4975376;28;20465;-61
2022/08/27 00:30:50;;;;;;;3.22;2.92;;;23.30;99.90;;;;;;4958082;28;20019;-61
2022/08/27 00:33:16;;;;;;;5.00;3.22;;;23.30;99.90;;;;;;4957793;28;20109;-62
2022/08/27 00:35:41;;;;;;;4.10;3.38;;;23.20;99.90;;;;;;4975297;28;20030;-62
2022/08/27 00:38:08;;;;;;;5.05;3.30;;;23.20;99.90;;;;;;4975535;28;20549;-61
2022/08/27 00:40:33;;;;;;;4.18;2.95;;;23.20;99.90;;;;;;4975246;28;20047;-61
2022/08/27 00:43:02;;;;;;;4.80;3.30;;;23.10;99.90;;;;;;4975180;28;20019;-61
2022/08/27 00:45:31;;;;;;;4.18;3.10;;;23.10;99.90;;;;;;4975269;28;20462;-62
2022/08/27 00:47:59;;;;;;;3.65;3.00;;;23.10;99.90;;;;;;4975043;28;20922;-61
2022/08/27 00:50:39;;;;;;;4.93;3.42;;;23.10;99.90;;;;;;4975037;28;20029;-62
2022/08/27 00:53:09;;;;;;;3.38;3.05;;;23.00;99.90;;;;;;4975027;28;20049;-62
2022/08/27 00:55:43;;;;;;;3.55;3.13;;;23.00;99.90;;;;;;4974967;28;20019;-62
2022/08/27 00:58:30;;;;;;;3.05;2.85;;;23.00;99.90;;;;;;4975064;28;20090;-62
2022/08/27 01:00:58;;;;;;;4.28;3.85;;;23.00;99.90;;;;;;4974861;28;20049;-62
2022/08/27 01:03:27;;;;;;;5.75;3.88;;;22.90;99.90;;;;;;4974855;28;20019;-62
2022/08/27 01:05:57;;;;;;;5.70;4.25;;;22.80;99.90;;;;;;4974907;28;20137;-61
2022/08/27 01:08:27;;;;;;;5.53;3.63;;;22.80;99.90;;;;;;4974765;28;20023;-61
2022/08/27 01:10:56;;;;;;;3.92;3.22;;;22.70;99.90;;;;;;4974968;28;20018;-61
2022/08/27 01:13:26;;;;;;;3.80;3.50;;;22.70;99.90;;;;;;4974733;28;20026;-62
2022/08/27 01:15:52;;;;;;;3.97;3.30;;;22.70;99.90;;;;;;4974634;28;20023;-62
2022/08/27 01:18:18;;;;;;;3.40;3.15;;;22.70;99.90;;;;;;4974606;28;20015;-62
2022/08/27 01:21:03;;;;;;;2.80;2.60;;;22.70;99.90;;;;;;4974770;28;20048;-62
2022/08/27 01:23:34;;;;;;;5.75;3.53;;;22.80;99.90;;;;;;4974695;28;20026;-62
2022/08/27 01:26:01;;;;;;;4.18;3.75;;;22.70;99.90;;;;;;4974503;28;20053;-62
2022/08/27 01:28:30;;;;;;;4.10;3.78;;;22.70;99.90;;;;;;4974379;28;20033;-61
2022/08/27 01:30:55;;;;;;;5.10;4.15;;;22.60;99.90;;;;;;4974713;28;20105;-62
2022/08/27 01:33:21;;;;;;;4.50;3.75;;;22.60;99.90;;;;;;4974275;28;20118;-61
2022/08/27 01:35:49;;;;;;;4.10;3.70;;;22.60;99.90;;;;;;4974456;28;20026;-62
2022/08/27 01:38:16;;;;;;;5.63;3.33;;;22.60;99.90;;;;;;4974624;28;20027;-61
2022/08/27 01:40:42;;;;;;;3.65;3.35;;;22.60;99.90;;;;;;4974518;28;20050;-62
2022/08/27 01:43:08;;;;;;;5.13;3.35;;;22.60;99.90;;;;;;4974698;28;20019;-61
2022/08/27 01:45:36;;;;;;;4.28;3.10;;;22.60;99.90;;;;;;4974401;28;20046;-61
2022/08/27 01:48:03;;;;;;;3.63;3.33;;;22.60;99.90;;;;;;4974218;28;20023;-62
2022/08/27 01:50:34;;;;;;;4.18;3.88;;;22.60;99.90;;;;;;4974281;28;20023;-61
2022/08/27 01:53:17;;;;;;;2.97;2.78;;;22.60;99.90;;;;;;4956986;28;20126;-62
2022/08/27 01:55:43;;;;;;;3.63;3.33;;;22.60;99.90;;;;;;4974219;28;20456;-62
2022/08/27 01:58:10;;;;;;;5.10;4.43;;;22.50;99.90;;;;;;4974431;28;20381;-61
2022/08/27 02:00:39;;;;;;;4.50;3.63;;;22.40;99.90;;;;;;4974221;28;20058;-62
2022/08/27 02:03:07;;;;;;;3.70;3.40;;;22.40;99.90;;;;;;4977218;28;20023;-62
2022/08/27 02:05:33;;;;;;;4.15;3.40;;;22.40;99.90;;;;;;4978084;28;20030;-61
2022/08/27 02:07:59;;;;;;;3.85;3.55;;;22.30;99.90;;;;;;4978118;28;20018;-61
2022/08/27 02:10:28;;;;;;;4.03;3.70;;;22.30;99.90;;;;;;4977995;28;20380;-61
2022/08/27 02:12:54;;;;;;;3.90;3.17;;;22.30;99.90;;;;;;4977983;28;20065;-64
2022/08/27 02:15:20;;;;;;;3.72;3.40;;;22.30;99.90;;;;;;4977848;28;20120;-63
2022/08/27 02:17:46;;;;;;;4.95;3.92;;;22.30;99.90;;;;;;4977822;28;20108;-64
2022/08/27 02:20:13;;;;;;;4.35;3.95;;;22.30;99.90;;;;;;4960555;28;20045;-63
2022/08/27 02:22:40;;;;;;;4.20;3.80;;;22.30;99.90;;;;;;4977745;28;20543;-64
2022/08/27 02:25:08;;;;;;;3.20;2.90;;;22.30;99.90;;;;;;4977551;28;20034;-63
2022/08/27 02:27:34;;;;;;;4.95;3.47;;;22.20;99.90;;;;;;4960398;28;20023;-61
2022/08/27 02:30:00;;;;;;;4.88;3.15;;;22.20;99.90;;;;;;4977534;28;20359;-61
2022/08/27 02:32:27;;;;;;;3.70;3.38;;;22.20;99.90;;;;;;4977590;28;20033;-61
2022/08/27 02:34:53;;;;;;;3.78;3.38;;;22.20;99.90;;;;;;4977613;28;20110;-61
2022/08/27 02:37:19;;;;;;;4.80;4.22;;;22.20;99.90;;;;;;4977557;28;20487;-61
2022/08/27 02:39:45;;;;;;;4.30;3.60;;;22.10;99.90;;;;;;4960226;28;20114;-62
2022/08/27 02:42:11;;;;;;;5.32;4.30;;;22.10;99.90;;;;;;4977386;28;20106;-62
2022/08/27 02:44:36;;;;;;;5.25;3.70;;;22.00;99.90;;;;;;4959926;28;20027;-62
2022/08/27 02:47:03;;;;;;;4.65;3.70;;;22.00;99.90;;;;;;4977357;28;20046;-62
2022/08/27 02:49:29;;;;;;;3.47;3.25;;;22.00;99.90;;;;;;4959875;28;20389;-62
2022/08/27 02:51:56;;;;;;;3.67;3.22;;;22.00;99.90;;;;;;4977297;28;20031;-62
2022/08/27 02:54:22;;;;;;;3.20;2.75;;;22.00;99.90;;;;;;4977254;28;20027;-61
2022/08/27 02:56:49;;;;;;;4.85;2.95;;;22.00;99.90;;;;;;4977153;28;20022;-62
2022/08/27 02:59:16;;;;;;;3.30;2.67;;;22.00;99.90;;;;;;4959565;28;20019;-61
2022/08/27 03:01:41;;;;;;;5.57;3.33;;;22.00;99.90;;;;;;4977109;28;20027;-62
2022/08/27 03:04:07;;;;;;;3.55;3.22;;;22.00;99.90;;;;;;4977047;28;20491;-62
2022/08/27 03:06:33;;;;;;;3.80;3.40;;;22.00;99.90;;;;;;4977014;28;20038;-61
2022/08/27 03:08:59;;;;;;;3.03;2.72;;;21.90;99.90;;;;;;4977029;28;20042;-61
2022/08/27 03:11:25;;;;;;;3.28;2.78;;;21.80;99.90;;;;;;4976809;28;20105;-62
2022/08/27 03:13:51;;;;;;;3.47;3.17;;;21.80;99.90;;;;;;4958297;28;20054;-62
2022/08/27 03:16:17;;;;;;;3.90;3.30;;;21.80;99.90;;;;;;4976906;28;20034;-61
2022/08/27 03:18:43;;;;;;;4.25;3.08;;;21.90;99.90;;;;;;4976754;28;20118;-61
2022/08/27 03:21:18;;;;;;;6.05;3.10;;;21.80;99.90;;;;;;4976640;28;20106;-62
2022/08/27 03:23:44;;;;;;;3.33;3.03;;;21.90;99.90;;;;;;4959382;28;20026;-62
2022/08/27 03:26:11;;;;;;;4.43;3.53;;;21.80;99.90;;;;;;4976460;28;20441;-62
2022/08/27 03:28:37;;;;;;;4.18;3.00;;;21.80;99.90;;;;;;4976456;28;20019;-62
2022/08/27 03:31:06;;;;;;;3.28;2.97;;;21.70;99.90;;;;;;4976672;28;20026;-61
2022/08/27 03:33:36;;;;;;;4.10;2.88;;;21.70;99.90;;;;;;4976488;28;20031;-62
2022/08/27 03:36:06;;;;;;;4.88;3.97;;;21.70;99.90;;;;;;4976525;28;20393;-62
2022/08/27 03:38:32;;;;;;;4.10;3.75;;;21.70;99.90;;;;;;4976415;28;20026;-62
2022/08/27 03:40:58;;;;;;;3.92;3.50;;;21.60;99.90;;;;;;4976334;28;20109;-62
2022/08/27 03:43:24;;;;;;;4.03;3.63;;;21.60;99.90;;;;;;4976201;28;20153;-62
2022/08/27 03:45:51;;;;;;;3.67;3.38;;;21.60;99.90;;;;;;4976242;28;20150;-62
2022/08/27 03:48:17;;;;;;;3.53;3.22;;;21.60;99.90;;;;;;4976210;28;20030;-62
2022/08/27 03:50:45;;;;;;;4.80;4.38;;;21.50;99.90;;;;;;4976221;28;20023;-62
2022/08/27 03:53:13;;;;;;;3.55;3.28;;;21.50;99.90;;;;;;4976206;28;20093;-62
2022/08/27 03:55:40;;;;;;;3.58;3.28;;;21.50;99.90;;;;;;4976105;28;20019;-61
2022/08/27 03:58:06;;;;;;;3.60;3.30;;;21.50;99.90;;;;;;4958609;28;20366;-62
2022/08/27 04:00:32;;;;;;;4.35;3.45;;;21.40;99.90;;;;;;4976066;28;20086;-62
2022/08/27 04:02:58;;;;;;;5.15;3.20;;;21.50;99.90;;;;;;4975965;28;20026;-62
2022/08/27 04:05:23;;;;;;;4.50;3.47;;;21.50;99.90;;;;;;4976089;28;20029;-62
2022/08/27 04:07:49;;;;;;;4.10;3.67;;;21.50;99.90;;;;;;4976010;28;20074;-62
2022/08/27 04:10:16;;;;;;;4.35;3.97;;;21.40;99.90;;;;;;4975796;28;20023;-62
2022/08/27 04:12:42;;;;;;;3.55;3.25;;;21.40;99.90;;;;;;4975514;28;20038;-61
2022/08/27 04:15:10;;;;;;;3.25;2.90;;;21.40;99.90;;;;;;4975798;28;20023;-62
2022/08/27 04:17:36;;;;;;;3.03;2.83;;;21.40;99.90;;;;;;4975664;28;20065;-61
2022/08/27 04:20:03;;;;;;;3.47;3.28;;;21.40;99.90;;;;;;4975853;28;20022;-62
2022/08/27 04:22:28;;;;;;;3.63;3.25;;;21.50;99.90;;;;;;4975985;28;20030;-62
2022/08/27 04:24:54;;;;;;;4.18;3.78;;;21.50;99.90;;;;;;4975317;28;20027;-62
2022/08/27 04:27:21;;;;;;;3.13;2.92;;;21.50;99.90;;;;;;4974957;28;20050;-62
2022/08/27 04:29:47;;;;;;;3.38;3.08;;;21.50;99.90;;;;;;4975571;28;20030;-62
2022/08/27 04:32:13;;;;;;;3.30;3.00;;;21.50;99.90;;;;;;4975275;28;20039;-63
2022/08/27 04:34:39;;;;;;;3.05;2.78;;;21.50;99.90;;;;;;4975200;28;20029;-61
2022/08/27 04:37:06;;;;;;;3.47;3.28;;;21.50;99.90;;;;;;4975280;28;20030;-62
2022/08/27 04:39:32;;;;;;;4.75;4.03;;;21.50;99.90;;;;;;4975310;28;20022;-62
2022/08/27 04:41:59;;;;;;;4.30;4.00;;;21.50;99.90;;;;;;4974905;28;20109;-62
2022/08/27 04:44:29;;;;;;;4.53;4.10;;;21.60;99.90;;;;;;4975125;28;20052;-61
2022/08/27 04:46:58;;;;;;;4.70;4.05;;;21.60;99.90;;;;;;4975101;28;20098;-62
2022/08/27 04:49:25;;;;;;;4.00;3.70;;;21.60;99.90;;;;;;4975063;28;20026;-61
2022/08/27 04:51:51;;;;;;;5.10;3.78;;;21.60;99.90;;;;;;4975010;28;20067;-61
2022/08/27 04:54:16;;;;;;;5.60;3.63;;;21.70;99.90;;;;;;4975331;28;20019;-62
2022/08/27 04:56:42;;;;;;;3.53;3.25;;;21.70;99.90;;;;;;4974847;28;20019;-62
2022/08/27 04:59:09;;;;;;;4.07;3.67;;;21.70;99.90;;;;;;4974992;28;20037;-62
2022/08/27 05:01:37;;;;;;;3.88;3.53;;;21.70;99.90;;;;;;4975095;28;20023;-61
2022/08/27 05:04:02;;;;;;;4.50;3.90;;;21.80;99.90;;;;;;4974877;28;20050;-62
2022/08/27 05:06:28;;;;;;;4.53;4.13;;;21.80;99.90;;;;;;4974965;28;20069;-62
2022/08/27 05:08:55;;;;;;;4.68;3.97;;;21.90;99.90;;;;;;4974946;28;20023;-62
2022/08/27 05:11:22;;;;;;;3.28;3.08;;;21.90;99.90;;;;;;4974625;28;20473;-64
2022/08/27 05:13:49;;;;;;;3.67;3.38;;;22.00;99.90;;;;;;4974909;28;20107;-62
2022/08/27 05:16:18;;;;;;;4.03;3.72;;;22.00;99.90;;;;;;4974729;28;20026;-63
2022/08/27 05:18:46;;;;;;;3.38;3.05;;;22.00;99.90;;;;;;4974636;28;20045;-62
2022/08/27 05:21:21;;;;;;;3.75;3.35;;;22.10;99.90;;;;;;4974647;28;20023;-62
2022/08/27 05:23:47;;;;;;;3.38;3.17;;;22.20;99.90;;;;;;4974512;28;20021;-62
2022/08/27 05:26:13;;;;;;;3.25;3.05;;;22.20;99.90;;;;;;4974404;28;20129;-62
2022/08/27 05:28:39;;;;;;;4.38;3.88;;;22.30;99.90;;;;;;4974766;28;20022;-62
2022/08/27 05:31:08;;;;;;;4.55;4.15;;;22.30;99.90;;;;;;4974539;28;20019;-62
2022/08/27 05:33:35;;;;;;;4.80;4.25;;;22.40;99.90;;;;;;4974526;28;20374;-62
2022/08/27 05:36:01;;;;;;;5.25;4.75;;;22.30;99.90;;;;;;4974073;28;20026;-62
2022/08/27 05:38:29;;;;;;;6.95;6.00;;;22.40;99.90;;;;;;4974488;28;20027;-62
2022/08/27 05:41:13;;;;;;;6.00;5.20;;;22.40;99.90;;;;;;4974394;28;20496;-61
2022/08/27 05:43:41;;;;;;;5.90;4.25;;;22.40;99.90;;;;;;4974491;28;20050;-62
2022/08/27 05:46:12;;;;;;;5.15;4.75;;;22.50;99.90;;;;;;4957029;28;20023;-62
2022/08/27 05:48:40;;;;;;;6.22;5.18;;;22.50;99.90;;;;;;4974309;28;20473;-62
2022/08/27 05:51:08;;;;;;;5.28;4.78;;;22.60;99.90;;;;;;4974337;28;20085;-62
2022/08/27 05:53:35;;;;;;;5.25;4.75;;;22.60;99.90;;;;;;4974047;28;20039;-61
2022/08/27 05:56:00;;;;;;;4.63;4.15;;;22.60;99.90;;;;;;4956950;28;20469;-62
2022/08/27 06:01:11;;;;;;;6.43;4.97;;;22.90;99.90;;;;;;4974382;28;20082;-61
2022/08/27 06:03:37;;;;;;;5.00;4.22;;;22.90;99.90;;;;;;4974233;28;20027;-62
2022/08/27 06:06:06;;;;;;;4.65;4.25;;;23.00;99.90;;;;;;4974194;28;20018;-62
2022/08/27 06:08:32;;;;;;;4.50;3.72;;;23.30;99.90;;;;;;4974019;28;20027;-61
2022/08/27 06:11:01;;;;;;;3.50;3.30;;;23.40;99.90;;;;;;4974146;28;20094;-61
2022/08/27 06:13:28;;;;;;;5.45;4.20;;;23.50;99.90;;;;;;4974025;28;20027;-61
2022/08/27 06:16:20;;;;;;;5.30;4.10;;;23.60;99.90;;;;;;4974115;28;20161;-62
2022/08/27 06:18:47;;;;;;;5.75;4.28;;;23.90;99.90;;;;;;4954766;28;20553;-62
2022/08/27 06:21:15;;;;;;;6.75;3.90;;;25.60;99.90;;;;;;4974020;28;20144;-62
2022/08/27 06:23:40;;;;;;;4.80;3.45;;;27.90;99.90;;;;;;4973949;28;20019;-62
2022/08/27 06:26:10;;;;;;;4.10;3.63;;;29.80;99.90;;;;;;4973640;28;20055;-61
2022/08/27 06:28:36;;;;;;;4.22;3.92;;;31.00;99.70;;;;;;4974160;28;20030;-61
2022/08/27 06:31:09;;;;;;;4.00;3.60;;;32.10;98.00;;;;;;4956645;28;20042;-61
2022/08/27 06:33:36;;;;;;;3.20;2.90;;;33.10;95.20;;;;;;4956503;28;20438;-61
2022/08/27 06:36:05;;;;;;;3.65;3.17;;;33.90;93.20;;;;;;4973978;28;20066;-62
2022/08/27 06:38:32;;;;;;;8.15;3.75;;;34.70;91.40;;;;;;4973768;28;20029;-62
2022/08/27 06:40:58;;;;;;;4.18;3.53;;;35.20;89.00;;;;;;4973866;28;20432;-62
2022/08/27 06:43:25;;;;;;;4.53;4.00;;;35.50;86.80;;;;;;4973973;28;20122;-62
2022/08/27 06:45:51;;;;;;;4.53;3.70;;;35.80;82.80;;;;;;4973929;28;20019;-62
2022/08/27 06:48:18;;;;;;;4.45;3.80;;;36.20;83.20;;;;;;4958103;28;20029;-62
2022/08/27 06:50:44;;;;;;;3.47;3.17;;;36.60;81.30;;;;;;4977428;28;20057;-62
2022/08/27 06:53:11;;;;;;;3.63;3.33;;;37.10;79.90;;;;;;4977021;28;20081;-62
2022/08/27 06:55:43;;;;;;;4.03;3.63;;;37.50;77.50;;;;;;4977169;28;20015;-62
2022/08/27 06:58:09;;;;;;;8.10;4.43;;;37.80;74.70;;;;;;4977284;28;20465;-62
2022/08/27 07:00:35;;;;;;;6.30;3.55;;;37.80;73.90;;;;;;4977078;28;20031;-62
2022/08/27 07:03:03;;;;;;;3.90;3.60;;;38.10;73.10;;;;;;4959640;28;20393;-62
2022/08/27 07:05:30;;;;;;;3.70;3.40;;;38.20;70.50;;;;;;4976851;28;20057;-62
2022/08/27 07:07:56;;;;;;;3.17;2.97;;;38.50;71.40;;;;;;4977108;28;20023;-62
2022/08/27 07:10:23;;;;;;;3.28;3.08;;;38.80;68.90;;;;;;4976870;28;20033;-62
2022/08/27 07:12:49;;;;;;;6.13;4.43;;;38.90;68.90;;;;;;4976835;28;20121;-62
2022/08/27 07:15:15;;;;;;;3.78;3.42;;;39.10;66.30;;;;;;4976803;28;20019;-62
2022/08/27 07:17:43;;;;;;;3.33;3.13;;;39.40;66.20;;;;;;4976714;28;20027;-62
2022/08/27 07:20:10;;;;;;;3.78;3.47;;;39.70;64.70;;;;;;4976555;28;20022;-62
2022/08/27 07:22:37;;;;;;;3.80;3.50;;;39.80;64.60;;;;;;4976628;28;20105;-62
2022/08/27 07:25:03;;;;;;;3.97;3.50;;;40.20;64.30;;;;;;4976335;28;20485;-62
2022/08/27 07:27:29;;;;;;;3.88;3.30;;;40.30;62.20;;;;;;4976668;28;20481;-62
2022/08/27 07:29:55;;;;;;;4.35;3.15;;;40.40;61.70;;;;;;4976714;28;20023;-62
2022/08/27 07:32:20;;;;;;;3.45;3.15;;;40.60;61.60;;;;;;4976437;28;20027;-62
2022/08/27 07:34:46;;;;;;;3.35;3.05;;;40.90;59.40;;;;;;4976292;28;20081;-62
2022/08/27 07:37:13;;;;;;;4.35;3.08;;;41.30;58.70;;;;;;4976557;28;20030;-62
2022/08/27 07:39:38;;;;;;;3.50;3.20;;;41.50;58.20;;;;;;4976466;28;20462;-62
2022/08/27 07:44:48;;;;;;;12.80;4.97;;;41.90;58.50;;;;;;4976419;28;20444;-62
2022/08/27 07:47:14;;;;;;;5.00;3.65;;;42.00;56.90;;;;;;4976229;28;20050;-62
2022/08/27 07:49:40;;;;;;;3.72;3.42;;;42.20;56.50;;;;;;4976138;28;20466;-62
2022/08/27 07:52:05;;;;;;;5.50;4.55;;;42.30;55.30;;;;;;4976128;28;20085;-62
2022/08/27 07:54:31;;;;;;;4.78;4.10;;;42.40;53.80;;;;;;4975991;28;20026;-62
2022/08/27 07:56:57;;;;;;;4.40;3.97;;;42.00;55.00;;;;;;4976078;28;20029;-63
2022/08/27 07:59:24;;;;;;;4.72;3.78;;;42.00;55.00;;;;;;4975508;28;20023;-63
2022/08/27 08:01:49;;;;;;;3.80;3.50;;;42.30;54.50;;;;;;4958610;28;20118;-62
2022/08/27 08:04:15;;;;;;;7.20;4.50;;;42.60;53.80;;;;;;4975740;28;20107;-62
2022/08/27 08:06:41;;;;;;;5.18;4.35;;;42.40;53.40;;;;;;4975970;28;20474;-62
2022/08/27 08:09:07;;;;;;;5.20;4.50;;;42.40;53.70;;;;;;4975857;28;20098;-62
2022/08/27 08:11:33;;;;;;;5.07;4.63;;;42.20;53.80;;;;;;4975686;28;20018;-63
2022/08/27 08:14:00;;;;;;;5.78;4.80;;;41.80;54.90;;;;;;4975912;28;20058;-62
2022/08/27 08:16:26;;;;;;;4.47;4.07;;;41.90;54.50;;;;;;4975766;28;20023;-62
2022/08/27 08:18:52;;;;;;;4.75;4.35;;;42.20;54.30;;;;;;4975494;28;20444;-62
2022/08/27 08:21:18;;;;;;;3.95;3.65;;;42.30;54.40;;;;;;4975581;28;20062;-62
2022/08/27 08:23:44;;;;;;;6.45;5.00;;;42.50;53.20;;;;;;4975652;28;20157;-62
2022/08/27 08:26:11;;;;;;;6.72;4.70;;;42.60;53.30;;;;;;4975313;28;20169;-62
2022/08/27 08:28:38;;;;;;;6.53;4.65;;;41.80;53.00;;;;;;4975610;28;20046;-63
2022/08/27 08:31:04;;;;;;;4.50;4.15;;;41.70;54.40;;;;;;4975458;28;20105;-62
2022/08/27 08:33:30;;;;;;;4.70;4.30;;;41.70;56.00;;;;;;4975071;28;20031;-63
2022/08/27 08:36:07;;;;;;;6.32;4.47;;;41.80;54.10;;;;;;4975390;28;20093;-63
2022/08/27 08:38:33;;;;;;;4.70;4.25;;;41.80;53.60;;;;;;4975302;28;20030;-62
2022/08/27 08:40:59;;;;;;;8.45;5.05;;;41.90;53.70;;;;;;4975274;28;20102;-63
2022/08/27 08:43:37;;;;;;;4.22;3.92;;;41.50;53.40;;;;;;4975307;28;20023;-63
2022/08/27 08:46:16;;;;;;;6.03;4.60;;;41.10;55.40;;;;;;4975218;28;20031;-62
2022/08/27 08:48:47;;;;;;;5.40;4.20;;;40.80;54.10;;;;;;4975029;28;20093;-63
2022/08/27 08:51:38;;;;;;;4.32;4.03;;;40.70;54.90;;;;;;4975209;28;20412;-63
2022/08/27 08:54:08;;;;;;;4.35;3.97;;;40.70;55.30;;;;;;4957791;28;20134;-63
2022/08/27 08:56:46;;;;;;;5.68;4.07;;;40.50;55.90;;;;;;4975056;28;20477;-63
2022/08/27 08:59:40;;;;;;;4.30;3.97;;;40.40;56.30;;;;;;4975055;28;20102;-63
2022/08/27 09:02:08;;;;;;;7.82;5.15;;;40.40;56.30;;;;;;4970961;28;20035;-63
2022/08/27 09:04:34;;;;;;;4.95;4.45;;;40.10;56.30;;;;;;4974898;28;20027;-62
2022/08/27 09:07:23;;;;;;;5.90;5.03;;;39.70;55.40;;;;;;4974894;28;20466;-62
2022/08/27 09:09:53;;;;;;;4.80;4.40;;;39.30;56.00;;;;;;4967601;28;20045;-63
2022/08/27 09:12:28;;;;;;;4.13;3.75;;;39.40;55.30;;;;;;4973868;28;20031;-63
2022/08/27 09:15:00;;;;;;;4.85;4.25;;;39.50;56.00;;;;;;4974833;28;20553;-63
2022/08/27 09:17:26;;;;;;;;;;;39.60;58.50;;;;;;4974989;28;20470;-63
2022/08/27 09:19:52;;;;;;;4.20;3.75;;;39.70;58.00;;;;;;4974582;28;19910;-63
2022/08/27 09:22:27;;;;;;;5.03;4.43;;;39.70;56.50;;;;;;4974553;28;20077;-62
2022/08/27 09:24:58;;;;;;;5.05;4.22;;;39.60;58.90;;;;;;4974652;28;20092;-63
2022/08/27 09:27:25;;;;;;;5.28;4.22;;;39.50;56.90;;;;;;4974475;28;20058;-63
2022/08/27 09:29:53;;;;;;;7.05;4.47;;;39.60;56.70;;;;;;4974636;28;20457;-63
2022/08/27 09:32:25;;;;;;;4.93;4.30;;;39.20;55.50;;;;;;4974287;28;20077;-63
2022/08/27 09:34:55;;;;;;;5.60;4.88;;;39.00;56.50;;;;;;4974474;28;20030;-63
2022/08/27 09:37:28;;;;;;;5.97;4.75;;;38.90;56.90;;;;;;4974532;28;20039;-63
2022/08/27 09:40:10;;;;;;;4.45;4.13;;;38.80;58.50;;;;;;4974432;28;20154;-62
2022/08/27 09:42:52;;;;;;;5.40;4.20;;;39.00;58.50;;;;;;4974486;28;20027;-63
2022/08/27 09:45:26;;;;;;;4.95;4.45;;;39.40;55.80;;;;;;4974400;28;20062;-63
2022/08/27 09:48:06;;;;;;;7.93;4.80;;;39.60;57.20;;;;;;4974341;28;20051;-63
2022/08/27 09:50:48;;;;;;;4.60;4.20;;;39.60;57.90;;;;;;4974366;28;20035;-63
2022/08/27 09:53:27;;;;;;;4.03;3.72;;;39.70;55.50;;;;;;4974240;28;20385;-63
2022/08/27 09:55:57;;;;;;;3.83;3.50;;;40.10;55.00;;;;;;4974434;28;20106;-63
2022/08/27 09:58:25;;;;;;;4.43;3.97;;;40.10;56.40;;;;;;4974299;28;20023;-63
2022/08/27 10:01:02;;;;;;;4.03;3.47;;;40.10;58.00;;;;;;4974032;28;20081;-63
2022/08/27 10:03:28;;;;;;;4.28;3.75;;;40.00;54.40;;;;;;4974333;28;20031;-63
2022/08/27 10:05:54;;;;;;;4.60;3.50;;;39.90;53.70;;;;;;4974284;28;20046;-63
2022/08/27 10:08:42;;;;;;;5.15;3.53;;;39.90;53.30;;;;;;4956799;28;20470;-63
2022/08/27 10:11:19;;;;;;;6.78;4.22;;;39.90;52.80;;;;;;4974293;28;20474;-63
2022/08/27 10:13:51;;;;;;;10.15;4.20;;;39.80;53.60;;;;;;4974224;28;20035;-63
2022/08/27 10:16:37;;;;;;;5.95;4.00;;;39.80;54.30;;;;;;4974159;28;20026;-63
2022/08/27 10:19:24;;;;;;;5.10;3.95;;;39.70;53.00;;;;;;4974244;28;20026;-63
2022/08/27 10:22:22;;;;;;;4.57;3.70;;;39.30;55.70;;;;;;4973924;28;20027;-63
2022/08/27 10:24:54;;;;;;;4.47;4.07;;;39.50;53.10;;;;;;4977863;28;20437;-63
2022/08/27 10:27:33;;;;;;;6.25;3.85;;;39.90;56.00;;;;;;4977597;28;20085;-63
2022/08/27 10:30:04;;;;;;;7.65;4.22;;;40.10;53.30;;;;;;4977811;28;20037;-63
2022/08/27 10:32:39;;;;;;;8.00;3.35;;;39.80;49.50;;;;;;4960235;28;20489;-63
2022/08/27 10:35:21;;;;;;;4.32;3.30;;;39.30;51.10;;;;;;4977714;28;20076;-63
2022/08/27 10:38:08;;;;;;;4.20;3.00;;;39.40;53.20;;;;;;4977529;28;20385;-64
2022/08/27 10:40:48;;;;;;;3.00;2.70;;;39.40;51.60;;;;;;4977548;28;20105;-63
2022/08/27 10:43:39;;;;;;;5.32;2.80;;;39.50;52.20;;;;;;4977458;28;20046;-63
2022/08/27 10:46:05;;;;;;;3.80;2.80;;;39.80;52.10;;;;;;4959272;28;20062;-64
2022/08/27 10:48:42;;;;;;;3.83;2.75;;;40.00;54.40;;;;;;4977376;28;20031;-63
2022/08/27 10:51:11;;;;;;;6.60;3.17;;;40.10;48.50;;;;;;4977332;28;20483;-63
2022/08/27 10:53:50;;;;;;;5.95;2.78;;;39.90;48.60;;;;;;4977179;28;20051;-63
2022/08/27 10:56:31;;;;;;;3.70;2.80;;;39.70;49.30;;;;;;4977223;28;20015;-63
2022/08/27 10:59:00;;;;;;;3.42;2.70;;;39.70;53.20;;;;;;4977325;28;20109;-63
2022/08/27 11:01:37;;;;;;;2.97;2.67;;;40.00;51.60;;;;;;4977174;28;20118;-63
2022/08/27 11:04:19;;;;;;;4.82;2.80;;;40.20;50.30;;;;;;4977049;28;20027;-63
2022/08/27 11:07:18;;;;;;;4.63;2.70;;;40.10;46.10;;;;;;4977134;28;20425;-63
2022/08/27 11:09:50;;;;;;;5.13;2.88;;;40.40;45.60;;;;;;4976634;28;20038;-64
2022/08/27 11:12:30;;;;;;;3.15;2.20;;;40.60;45.50;;;;;;4976770;28;20030;-63
2022/08/27 11:15:08;;;;;;;4.10;2.45;;;40.80;46.00;;;;;;4976874;28;20019;-63
2022/08/27 11:17:52;;;;;;;3.20;2.10;;;40.90;42.20;;;;;;4976878;28;20058;-63
2022/08/27 11:20:30;;;;;;;4.90;3.10;;;40.80;45.20;;;;;;4976899;28;20118;-63
2022/08/27 11:23:03;;;;;;;4.47;2.55;;;40.90;44.30;;;;;;4976571;28;20038;-63
2022/08/27 11:25:38;;;;;;;5.82;2.30;;;40.90;45.30;;;;;;4976598;28;20104;-63
2022/08/27 11:28:07;;;;;;;4.20;2.33;;;41.10;46.40;;;;;;4976503;28;20027;-63
2022/08/27 11:30:41;;;;;;;2.33;2.10;;;40.90;44.60;;;;;;4976747;28;20368;-63
2022/08/27 11:33:34;;;;;;;3.85;2.40;;;40.90;43.50;;;;;;4976519;28;20041;-63
2022/08/27 11:36:31;;;;;;;2.95;2.10;;;40.80;42.70;;;;;;4975756;28;20015;-63
2022/08/27 11:39:08;;;;;;;2.10;1.73;;;40.70;45.80;;;;;;4970754;28;20042;-63
2022/08/27 11:41:42;;;;;;;2.92;2.33;;;40.90;43.00;;;;;;4976253;28;20019;-63
2022/08/27 11:44:08;;;;;;;3.63;2.20;;;40.80;40.90;;;;;;4976336;28;20027;-63
2022/08/27 11:46:54;;;;;;;2.97;2.28;;;40.90;42.90;;;;;;4976322;28;20026;-63
2022/08/27 11:49:40;;;;;;;4.45;2.80;;;41.00;41.70;;;;;;4976263;28;20023;-63
2022/08/27 11:52:07;;;;;;;3.25;2.28;;;40.90;42.00;;;;;;4976220;28;20034;-63
2022/08/27 11:54:50;;;;;;;3.17;2.30;;;40.70;47.20;;;;;;4976118;28;20023;-63
2022/08/27 11:57:30;;;;;;;4.88;2.30;;;40.70;39.40;;;;;;4976080;28;20022;-63
2022/08/27 11:59:56;;;;;;;4.07;2.20;;;40.60;38.80;;;;;;4975982;28;20470;-63
2022/08/27 12:02:26;;;;;;;3.20;2.22;;;40.40;43.50;;;;;;4976047;28;20389;-63
2022/08/27 12:05:05;;;;;;;3.55;1.98;;;40.40;42.10;;;;;;4976049;28;20030;-63
2022/08/27 12:07:36;;;;;;;5.20;2.22;;;40.80;41.30;;;;;;4976081;28;20540;-63
2022/08/27 12:10:01;;;;;;;2.47;1.80;;;41.00;41.40;;;;;;4975838;28;20046;-63
2022/08/27 12:12:56;;;;;;;4.35;2.00;;;41.20;40.00;;;;;;4975695;28;20486;-63
2022/08/27 12:15:34;;;;;;;3.58;1.77;;;41.10;40.00;;;;;;4960542;28;20038;-63
2022/08/27 12:18:14;;;;;;;2.42;2.10;;;41.10;44.20;;;;;;4975747;28;20029;-63
2022/08/27 12:20:47;;;;;;;7.85;2.45;;;41.00;39.00;;;;;;4975820;28;20184;-63
2022/08/27 12:23:45;;;;;;;2.83;2.20;;;40.70;40.70;;;;;;4975611;28;20443;-63
2022/08/27 12:26:38;;;;;;;1.88;1.75;;;40.80;38.80;;;;;;4975471;28;20049;-63
2022/08/27 12:29:23;;;;;;;1.98;1.77;;;40.80;41.20;;;;;;4975590;28;20023;-63
2022/08/27 12:32:13;;;;;;;4.10;2.00;;;41.00;41.20;;;;;;4975442;28;20093;-63
2022/08/27 12:35:15;;;;;;;3.78;2.22;;;41.10;38.70;;;;;;4969703;28;20051;-63
2022/08/27 12:38:01;;;;;;;4.78;2.30;;;41.20;39.80;;;;;;4956229;28;20489;-63
2022/08/27 12:40:36;;;;;;;4.72;2.17;;;40.80;41.20;;;;;;4975213;28;20477;-63
2022/08/27 12:43:14;;;;;;;6.15;2.40;;;40.70;39.50;;;;;;4957965;28;20030;-63
2022/08/27 12:46:03;;;;;;;2.80;2.22;;;40.20;39.80;;;;;;4975187;28;20030;-63
2022/08/27 12:48:40;;;;;;;3.47;2.50;;;40.30;40.00;;;;;;4975259;28;20029;-63
2022/08/27 12:51:15;;;;;;;2.50;2.20;;;40.30;43.00;;;;;;4975183;28;20026;-63
2022/08/27 12:53:43;;;;;;;2.25;2.05;;;40.20;40.40;;;;;;4975011;28;20030;-63
2022/08/27 12:56:11;;;;;;;3.00;2.15;;;40.20;41.40;;;;;;4975115;28;20098;-63
2022/08/27 12:58:59;;;;;;;4.53;2.10;;;40.50;42.10;;;;;;4974883;28;20027;-63
2022/08/27 13:01:33;;;;;;;2.58;2.10;;;40.80;39.40;;;;;;4975034;28;20047;-63
2022/08/27 13:04:04;;;;;;;2.50;2.08;;;40.50;39.70;;;;;;4974966;28;20385;-63
2022/08/27 13:06:33;;;;;;;3.00;2.30;;;40.30;37.80;;;;;;4975131;28;20052;-63
2022/08/27 13:09:06;;;;;;;2.40;1.83;;;40.20;39.20;;;;;;4974687;28;20035;-63
2022/08/27 13:11:41;;;;;;;3.55;1.80;;;40.40;40.20;;;;;;4974704;28;20026;-63